Погода Камбена 2 недели

Парана, Бразилия

23 июля-04 августа
  • 23июля
    Сегодня
    +11°
    +27°
    Ясно и безоблачно
    ВремяПогодаТемператураВлажностьДавлениеВетер, м/сВероятность осадков
    00:00Ясно и безоблачно+18°C65 %714 мм2.9 м/с5 %
    03:00Ясно и безоблачно+15°C68 %714 мм2.9 м/с5 %
    06:00Ясно и безоблачно+12°C76 %713 мм2.6 м/с5 %
    09:00Ясно и безоблачно+17°C61 %716 мм0.4 м/с5 %
    12:00Ясно и безоблачно+25°C35 %717 мм3.7 м/с5 %
    15:00Ясно и безоблачно+27°C23 %715 мм1.1 м/с5 %
    18:00Ясно и безоблачно+20°C38 %713 мм2.2 м/с5 %
    21:00Облачно с прояснениями+16°C45 %713 мм2.9 м/с5 %
  • 24июля
    Среда
    +12°
    +28°
    Небольшая облачность
    ВремяПогодаТемператураВлажностьДавлениеВетер, м/сВероятность осадков
    00:00Небольшая облачность+15°C51 %714 мм3.0 м/с5 %
    03:00Практически безоблачно+13°C60 %713 мм3.2 м/с5 %
    06:00Ясно и безоблачно+12°C64 %712 мм2.8 м/с5 %
    09:00Ясно и безоблачно+17°C50 %715 мм0.6 м/с5 %
    12:00Небольшая облачность+25°C33 %716 мм3.5 м/с5 %
    15:00Небольшая облачность+28°C29 %714 мм1.0 м/с5 %
    18:00Небольшая облачность+24°C46 %713 мм2.2 м/с5 %
    21:00Практически безоблачно+17°C49 %713 мм2.4 м/с5 %
  • 25июля
    Четверг
    +13°
    +29°
    Ясно и безоблачно
    ВремяПогодаТемператураВлажностьДавлениеВетер, м/сВероятность осадков
    00:00Ясно и безоблачно+16°C61 %713 мм2.2 м/с5 %
    03:00Ясно и безоблачно+15°C61 %712 мм2.0 м/с5 %
    06:00Ясно и безоблачно+13°C66 %712 мм1.9 м/с5 %
    09:00Ясно и безоблачно+19°C49 %714 мм0.3 м/с5 %
    12:00Ясно и безоблачно+26°C33 %714 мм2.5 м/с5 %
    15:00Ясно и безоблачно+29°C27 %712 мм0.8 м/с5 %
    18:00Ясно и безоблачно+22°C44 %711 мм2.5 м/с5 %
    21:00Ясно и безоблачно+20°C42 %711 мм1.4 м/с5 %
  • 26июля
    Пятница
    +14°
    +29°
    Облачно с прояснениями
    ВремяПогодаТемператураВлажностьДавлениеВетер, м/сВероятность осадков
    00:00Ясно и безоблачно+17°C52 %711 мм2.2 м/с5 %
    03:00Облачно с прояснениями+15°C58 %710 мм2.1 м/с5 %
    06:00Облачно с прояснениями+14°C61 %710 мм2.1 м/с5 %
    09:00Облачно с прояснениями+20°C49 %713 мм0.1 м/с5 %
    12:00Облачно с прояснениями+27°C33 %714 мм3.1 м/с5 %
    15:00Облачно с прояснениями+28°C27 %712 мм0.9 м/с5 %
    18:00Облачно с прояснениями+23°C40 %711 мм2.2 м/с5 %
    21:00Облачно с прояснениями+20°C39 %712 мм2.2 м/с5 %
Мы используем cookies
Соглашаюсь